createdAt,value
2023-03-21T00:03:03.394Z,16.33
2023-03-21T00:06:08.425Z,16.20
2023-03-21T00:09:13.317Z,16.47
2023-03-21T00:12:21.031Z,17.40
2023-03-21T00:15:30.680Z,17.13
2023-03-21T00:18:42.856Z,18.10
2023-03-21T00:22:05.874Z,18.37
2023-03-21T00:25:11.645Z,15.97
2023-03-21T00:28:16.820Z,15.70
2023-03-21T00:31:22.012Z,15.33
2023-03-21T00:34:36.939Z,15.67
2023-03-21T00:37:48.643Z,15.53
2023-03-21T00:40:53.820Z,15.43
2023-03-21T00:43:58.800Z,14.87
2023-03-21T00:47:07.624Z,14.60
2023-03-21T00:50:13.022Z,14.43
2023-03-21T00:53:17.913Z,14.07
2023-03-21T00:56:23.051Z,13.87
2023-03-21T00:59:28.276Z,14.07
2023-03-21T01:02:33.826Z,12.83
2023-03-21T01:05:56.627Z,13.07
2023-03-21T01:09:01.968Z,12.97
2023-03-21T01:12:06.853Z,13.17
2023-03-21T01:15:12.088Z,14.67
2023-03-21T01:18:17.201Z,14.33
2023-03-21T01:21:22.056Z,15.67
2023-03-21T01:24:27.328Z,14.40
2023-03-21T01:27:32.836Z,14.07
2023-03-21T01:30:41.951Z,13.70
2023-03-21T01:33:47.161Z,13.43
2023-03-21T01:36:52.399Z,14.27
2023-03-21T01:39:57.349Z,15.50
2023-03-21T01:43:02.239Z,14.07
2023-03-21T01:46:07.383Z,13.70
2023-03-21T01:49:12.312Z,12.67
2023-03-21T01:52:29.712Z,12.40
2023-03-21T01:55:39.225Z,12.20
2023-03-21T01:58:44.722Z,12.73
2023-03-21T02:01:49.869Z,12.67
2023-03-21T02:04:56.214Z,12.20
2023-03-21T02:08:01.940Z,11.70
2023-03-21T02:11:07.186Z,11.73
2023-03-21T02:14:15.308Z,11.80
2023-03-21T02:17:22.724Z,11.83
2023-03-21T02:20:28.002Z,12.40
2023-03-21T02:23:33.623Z,13.10
2023-03-21T02:26:42.471Z,13.50
2023-03-21T02:29:48.387Z,13.53
2023-03-21T02:32:53.332Z,14.93
2023-03-21T02:36:03.030Z,14.67
2023-03-21T02:39:11.649Z,14.27
2023-03-21T02:42:16.871Z,13.33
2023-03-21T02:45:22.362Z,13.60
2023-03-21T02:48:35.285Z,13.50
2023-03-21T02:51:46.485Z,13.23
2023-03-21T02:54:52.292Z,12.93
2023-03-21T02:57:59.247Z,12.27
2023-03-21T03:01:07.823Z,11.67
2023-03-21T03:04:13.020Z,13.60
2023-03-21T03:07:18.513Z,12.30
2023-03-21T03:10:24.163Z,12.03
2023-03-21T03:13:29.002Z,12.10
2023-03-21T03:16:36.817Z,11.83
2023-03-21T03:19:49.995Z,11.77
2023-03-21T03:22:56.100Z,11.47
2023-03-21T03:26:01.590Z,12.13
2023-03-21T03:29:06.469Z,11.47
2023-03-21T03:32:12.404Z,11.83
2023-03-21T03:35:17.439Z,10.93
2023-03-21T03:38:22.382Z,11.13
2023-03-21T03:41:27.640Z,10.70
2023-03-21T03:44:33.383Z,10.93
2023-03-21T03:47:47.779Z,11.53
2023-03-21T03:51:02.569Z,11.43
2023-03-21T03:54:07.612Z,10.37
2023-03-21T03:57:13.796Z,10.80
2023-03-21T04:00:18.843Z,10.53
2023-03-21T04:03:24.001Z,11.77
2023-03-21T04:06:29.217Z,10.47
2023-03-21T04:09:43.489Z,10.57
2023-03-21T04:12:48.804Z,10.07
2023-03-21T04:15:54.039Z,10.13
2023-03-21T04:19:02.185Z,9.80
2023-03-21T04:22:07.365Z,10.47
2023-03-21T04:25:18.970Z,9.87
2023-03-21T04:28:29.771Z,9.13
2023-03-21T04:31:36.005Z,10.70
2023-03-21T04:34:41.236Z,10.03
2023-03-21T04:37:46.156Z,10.23
2023-03-21T04:40:51.336Z,9.90
2023-03-21T04:43:56.543Z,9.97
2023-03-21T04:47:01.584Z,9.60
2023-03-21T04:50:06.965Z,9.67
2023-03-21T04:53:11.955Z,9.33
2023-03-21T04:56:16.933Z,10.10
2023-03-21T04:58:46.130Z,10.40
2023-03-21T05:01:14.708Z,10.50
2023-03-21T05:03:42.585Z,10.97
2023-03-21T05:06:12.362Z,11.53
2023-03-21T05:08:41.493Z,11.67
2023-03-21T05:11:09.238Z,11.77
2023-03-21T05:13:37.101Z,12.60
2023-03-21T05:16:07.223Z,11.60
2023-03-21T05:19:14.019Z,11.63
2023-03-21T05:22:19.609Z,11.20
2023-03-21T05:25:34.064Z,10.70
2023-03-21T05:28:40.030Z,10.70
2023-03-21T05:31:45.301Z,10.53
2023-03-21T05:34:50.290Z,11.50
2023-03-21T05:37:55.175Z,11.70
2023-03-21T05:41:00.409Z,11.30
2023-03-21T05:44:05.569Z,11.17
2023-03-21T05:47:10.821Z,12.13
2023-03-21T05:50:16.075Z,11.70
2023-03-21T05:53:23.181Z,12.80
2023-03-21T05:56:28.322Z,11.17
2023-03-21T05:59:33.480Z,13.63
2023-03-21T06:02:39.978Z,12.53
2023-03-21T06:05:45.090Z,13.73
2023-03-21T06:08:50.356Z,12.70
2023-03-21T06:11:55.519Z,14.03
2023-03-21T06:15:01.544Z,13.03
2023-03-21T06:18:06.677Z,12.70
2023-03-21T06:21:11.756Z,13.10
2023-03-21T06:24:17.831Z,13.97
2023-03-21T06:27:22.950Z,14.60
2023-03-21T06:30:28.322Z,14.63
2023-03-21T06:33:33.646Z,14.50
2023-03-21T06:36:39.197Z,13.87
2023-03-21T06:39:44.148Z,15.47
2023-03-21T06:42:49.249Z,15.87
2023-03-21T06:45:54.404Z,17.53
2023-03-21T06:48:59.544Z,18.13
2023-03-21T06:52:04.707Z,18.70
2023-03-21T06:55:10.215Z,18.10
2023-03-21T06:58:15.310Z,18.97
2023-03-21T07:01:20.982Z,19.43
2023-03-21T07:04:27.084Z,19.07
2023-03-21T07:07:32.040Z,19.50
2023-03-21T07:10:37.086Z,18.73
2023-03-21T07:13:42.067Z,19.07
2023-03-21T07:16:47.135Z,19.23
2023-03-21T07:19:52.224Z,18.37
2023-03-21T07:22:57.514Z,19.23
2023-03-21T07:26:02.742Z,18.27
2023-03-21T07:29:07.641Z,18.93
2023-03-21T07:32:12.931Z,18.67
2023-03-21T07:35:17.918Z,20.30
2023-03-21T07:38:22.898Z,19.03
2023-03-21T07:41:28.357Z,18.80
2023-03-21T07:44:33.862Z,17.30
2023-03-21T07:47:38.914Z,16.87
2023-03-21T07:50:43.830Z,16.83
2023-03-21T07:53:49.516Z,17.03
2023-03-21T07:56:54.756Z,18.50
2023-03-21T08:00:00.158Z,18.30
2023-03-21T08:03:06.114Z,19.33
2023-03-21T08:06:11.384Z,18.13
2023-03-21T08:09:16.638Z,16.20
2023-03-21T08:12:21.783Z,15.90
2023-03-21T08:15:27.089Z,15.23
2023-03-21T08:18:32.540Z,14.33
2023-03-21T08:21:39.215Z,12.90
2023-03-21T08:24:44.152Z,13.13
2023-03-21T08:27:49.480Z,12.57
2023-03-21T08:30:54.740Z,13.60
2023-03-21T08:33:59.722Z,12.37
2023-03-21T08:37:05.127Z,12.70
2023-03-21T08:40:11.451Z,13.57
2023-03-21T08:43:16.443Z,13.83
2023-03-21T08:46:21.678Z,13.13
2023-03-21T08:49:27.050Z,12.20
2023-03-21T08:52:32.137Z,13.33
2023-03-21T08:55:37.852Z,11.70
2023-03-21T08:58:42.841Z,12.30
2023-03-21T09:01:48.163Z,12.37
2023-03-21T09:04:54.885Z,12.17
2023-03-21T09:08:01.584Z,13.00
2023-03-21T09:11:06.587Z,11.83
2023-03-21T09:14:12.228Z,12.17
2023-03-21T09:17:19.344Z,14.73
2023-03-21T09:20:31.573Z,13.40
2023-03-21T09:23:37.659Z,13.37
2023-03-21T09:26:44.031Z,12.37
2023-03-21T09:29:49.317Z,11.77
2023-03-21T09:32:55.929Z,13.03
2023-03-21T09:36:01.473Z,13.10
2023-03-21T09:39:07.099Z,13.07
2023-03-21T09:42:15.397Z,11.47
2023-03-21T09:45:20.780Z,11.53
2023-03-21T09:48:31.270Z,12.43
2023-03-21T09:51:37.133Z,12.00
2023-03-21T09:54:43.048Z,12.73
2023-03-21T09:57:48.290Z,11.43
2023-03-21T10:00:56.727Z,11.13
2023-03-21T10:04:01.696Z,11.80
2023-03-21T10:07:07.986Z,12.33
2023-03-21T10:10:13.336Z,10.87
2023-03-21T10:13:18.306Z,11.37
2023-03-21T10:16:25.746Z,10.83
2023-03-21T10:19:30.841Z,10.63
2023-03-21T10:22:35.824Z,10.73
2023-03-21T10:25:41.258Z,11.33
2023-03-21T10:28:53.222Z,11.77
2023-03-21T10:31:58.923Z,12.20
2023-03-21T10:35:05.258Z,12.30
2023-03-21T10:38:10.670Z,10.80
2023-03-21T10:41:15.862Z,11.03
2023-03-21T10:44:20.801Z,10.07
2023-03-21T10:47:26.521Z,10.03
2023-03-21T10:50:31.952Z,10.53
2023-03-21T10:53:37.363Z,9.37
2023-03-21T10:56:42.266Z,9.03
2023-03-21T10:59:47.894Z,9.10
2023-03-21T11:02:53.318Z,9.00
2023-03-21T11:05:58.319Z,9.80
2023-03-21T11:09:04.592Z,8.47
2023-03-21T11:12:10.490Z,8.77
2023-03-21T11:15:15.507Z,8.87
2023-03-21T11:18:20.846Z,9.07
2023-03-21T11:21:29.675Z,8.70
2023-03-21T11:24:35.024Z,8.17
2023-03-21T11:27:40.587Z,7.27
2023-03-21T11:30:48.358Z,6.33
2023-03-21T11:33:55.942Z,5.33
2023-03-21T11:37:01.331Z,5.07
2023-03-21T11:40:06.632Z,5.40
2023-03-21T11:43:12.026Z,4.83
2023-03-21T11:46:18.053Z,4.73
2023-03-21T11:49:23.410Z,4.30
2023-03-21T11:52:28.998Z,4.53
2023-03-21T11:55:34.736Z,4.57
2023-03-21T11:58:39.893Z,5.47
2023-03-21T12:01:45.522Z,5.80
2023-03-21T12:04:50.855Z,5.90
2023-03-21T12:07:55.661Z,5.80
2023-03-21T12:11:00.928Z,5.67
2023-03-21T12:14:05.610Z,5.03
2023-03-21T12:17:11.029Z,5.30
2023-03-21T12:20:15.881Z,5.20
2023-03-21T12:23:20.791Z,5.20
2023-03-21T12:26:27.168Z,5.40
2023-03-21T12:29:34.250Z,4.20
2023-03-21T12:32:39.462Z,4.10
2023-03-21T12:35:45.972Z,4.30
2023-03-21T12:38:51.097Z,4.30
2023-03-21T12:41:56.110Z,4.90
2023-03-21T12:45:06.034Z,4.87
2023-03-21T12:48:11.683Z,4.60
2023-03-21T12:51:16.777Z,4.43
2023-03-21T12:54:21.955Z,4.03
2023-03-21T12:57:26.770Z,3.93
2023-03-21T13:00:33.274Z,3.57
2023-03-21T13:03:40.476Z,2.40
2023-03-21T13:06:46.588Z,2.30
2023-03-21T13:09:55.070Z,2.30
2023-03-21T13:13:00.095Z,3.10
2023-03-21T13:16:04.951Z,5.00
2023-03-21T13:19:10.038Z,4.77
2023-03-21T13:22:15.075Z,5.50
2023-03-21T13:25:20.275Z,5.00
2023-03-21T13:28:25.570Z,5.50
2023-03-21T13:31:41.925Z,4.80
2023-03-21T13:34:55.881Z,4.60
2023-03-21T13:38:00.997Z,4.37
2023-03-21T13:41:06.046Z,4.47
2023-03-21T13:44:11.219Z,4.63
2023-03-21T13:47:16.608Z,4.30
2023-03-21T13:50:21.663Z,4.13
2023-03-21T13:53:27.310Z,3.90
2023-03-21T13:56:32.537Z,4.17
2023-03-21T13:59:37.754Z,3.60
2023-03-21T14:02:43.040Z,3.40
2023-03-21T14:05:48.482Z,3.83
2023-03-21T14:08:53.534Z,3.57
2023-03-21T14:12:03.836Z,3.80
2023-03-21T14:15:17.283Z,3.60
2023-03-21T14:18:34.967Z,3.23
2023-03-21T14:21:48.073Z,3.50
2023-03-21T14:24:53.561Z,3.23
2023-03-21T14:28:00.110Z,3.77
2023-03-21T14:31:05.711Z,4.03
2023-03-21T14:34:12.666Z,3.70
2023-03-21T14:37:17.637Z,3.77
2023-03-21T14:40:22.721Z,3.80
2023-03-21T14:43:27.509Z,3.87
2023-03-21T14:46:32.790Z,5.10
2023-03-21T14:49:38.188Z,4.77
2023-03-21T14:52:44.468Z,4.90
2023-03-21T14:55:49.761Z,4.77
2023-03-21T14:58:55.926Z,5.03
2023-03-21T15:02:02.733Z,5.53
2023-03-21T15:05:07.377Z,5.40
2023-03-21T15:08:12.222Z,5.23
2023-03-21T15:11:17.347Z,5.90
2023-03-21T15:14:22.753Z,5.10
2023-03-21T15:17:28.246Z,5.40
2023-03-21T15:20:33.557Z,5.30
2023-03-21T15:23:38.835Z,4.90
2023-03-21T15:26:43.592Z,4.47
2023-03-21T15:29:49.167Z,4.27
2023-03-21T15:32:54.173Z,3.50
2023-03-21T15:35:59.309Z,3.47
2023-03-21T15:39:04.416Z,3.67
2023-03-21T15:42:09.736Z,3.53
2023-03-21T15:45:15.522Z,3.13
2023-03-21T15:48:20.560Z,2.97
2023-03-21T15:51:25.561Z,2.90
2023-03-21T15:54:30.806Z,3.00
2023-03-21T15:57:37.989Z,3.00
2023-03-21T16:00:43.957Z,3.07
2023-03-21T16:03:48.974Z,3.23
2023-03-21T16:06:53.913Z,4.43
2023-03-21T16:09:58.936Z,4.10
2023-03-21T16:13:04.625Z,4.00
2023-03-21T16:16:09.765Z,4.00
2023-03-21T16:19:14.837Z,3.60
2023-03-21T16:22:21.563Z,4.27
2023-03-21T16:25:26.886Z,3.60
2023-03-21T16:28:32.012Z,3.90
2023-03-21T16:31:37.259Z,3.90
2023-03-21T16:34:42.897Z,4.60
2023-03-21T16:37:48.630Z,5.47
2023-03-21T16:40:53.556Z,6.13
2023-03-21T16:43:58.859Z,6.67
2023-03-21T16:47:04.067Z,5.97
2023-03-21T16:50:09.450Z,6.30
2023-03-21T16:53:14.489Z,5.80
2023-03-21T16:56:19.522Z,6.53
2023-03-21T16:59:24.506Z,6.60
2023-03-21T17:02:29.394Z,6.97
2023-03-21T17:05:34.516Z,7.83
2023-03-21T17:08:39.587Z,8.70
2023-03-21T17:11:44.910Z,8.83
2023-03-21T17:14:50.793Z,9.17
2023-03-21T17:17:56.337Z,9.17
2023-03-21T17:21:01.309Z,10.00
2023-03-21T17:24:06.377Z,10.60
2023-03-21T17:27:11.791Z,11.63
2023-03-21T17:30:17.225Z,11.57
2023-03-21T17:33:22.236Z,11.87
2023-03-21T17:36:27.306Z,13.60
2023-03-21T17:39:32.407Z,13.13
2023-03-21T17:42:37.462Z,13.03
2023-03-21T17:45:42.699Z,13.03
2023-03-21T17:48:47.766Z,13.73
2023-03-21T17:51:53.464Z,12.93
2023-03-21T17:54:58.453Z,13.37
2023-03-21T17:58:04.181Z,13.57
2023-03-21T18:01:09.204Z,14.33
2023-03-21T18:04:14.268Z,14.87
2023-03-21T18:07:29.713Z,16.13
2023-03-21T18:10:44.356Z,18.27
2023-03-21T18:13:49.133Z,17.77
2023-03-21T18:16:54.337Z,19.03
2023-03-21T18:19:59.971Z,18.27
2023-03-21T18:23:05.154Z,18.37
2023-03-21T18:26:10.333Z,18.97
2023-03-21T18:32:42.043Z,17.37
2023-03-21T18:35:47.188Z,17.63
2023-03-21T18:38:52.056Z,18.10
2023-03-21T18:42:02.146Z,18.87
2023-03-21T18:45:07.723Z,20.93
2023-03-21T18:48:13.720Z,21.20
2023-03-21T18:51:19.280Z,21.47
2023-03-21T18:54:24.412Z,20.63
2023-03-21T18:57:37.047Z,21.10
2023-03-21T19:00:43.719Z,20.20
2023-03-21T19:04:15.418Z,19.60
2023-03-21T19:07:13.986Z,19.37
2023-03-21T19:10:20.370Z,19.83
2023-03-21T19:13:25.654Z,18.63
2023-03-21T19:16:39.854Z,18.87
2023-03-21T19:19:56.145Z,18.07
2023-03-21T19:23:01.981Z,18.43
2023-03-21T19:26:07.258Z,18.43
2023-03-21T19:29:14.961Z,18.53
2023-03-21T19:32:19.931Z,18.33
2023-03-21T19:35:25.277Z,19.47
2023-03-21T19:38:30.808Z,20.37
2023-03-21T19:41:36.414Z,18.97
2023-03-21T19:44:43.026Z,19.27
2023-03-21T19:47:47.817Z,19.73
2023-03-21T19:51:25.873Z,18.63
2023-03-21T19:54:18.531Z,19.37
2023-03-21T19:57:24.983Z,19.43
2023-03-21T20:00:30.321Z,20.07
2023-03-21T20:03:35.588Z,18.90
2023-03-21T20:06:40.725Z,18.90
2023-03-21T20:09:55.962Z,17.37
2023-03-21T20:13:02.561Z,18.77
2023-03-21T20:16:10.680Z,19.13
2023-03-21T20:19:16.378Z,17.60
2023-03-21T20:22:31.192Z,18.43
2023-03-21T20:25:46.149Z,17.47
2023-03-21T20:29:27.933Z,18.40
2023-03-21T20:32:22.696Z,16.03
2023-03-21T20:36:16.418Z,15.50
2023-03-21T20:38:53.133Z,16.07
2023-03-21T20:41:59.571Z,15.73
2023-03-21T20:45:05.100Z,15.63
2023-03-21T20:48:10.479Z,16.13
2023-03-21T20:52:27.462Z,16.43
2023-03-21T20:54:40.707Z,16.00
2023-03-21T20:57:48.656Z,16.13
2023-03-21T21:00:53.860Z,15.60
2023-03-21T21:04:00.709Z,16.87
2023-03-21T21:07:05.657Z,16.33
2023-03-21T21:10:10.981Z,16.63
2023-03-21T21:13:15.762Z,16.43
2023-03-21T21:16:20.801Z,17.30
2023-03-21T21:19:26.098Z,18.63
2023-03-21T21:22:31.586Z,18.13
2023-03-21T21:25:36.907Z,19.00
2023-03-21T21:28:43.437Z,17.77
2023-03-21T21:31:48.945Z,19.20
2023-03-21T21:34:53.833Z,18.40
2023-03-21T21:37:58.892Z,18.93
2023-03-21T21:41:04.028Z,20.07
2023-03-21T21:44:09.421Z,21.93
2023-03-21T21:47:14.601Z,22.77
2023-03-21T21:50:22.183Z,23.43
2023-03-21T21:53:28.162Z,23.73
2023-03-21T21:56:33.106Z,24.60
2023-03-21T21:59:38.013Z,24.93
2023-03-21T22:02:43.234Z,26.57
2023-03-21T22:05:48.755Z,24.90
2023-03-21T22:08:54.227Z,24.23
2023-03-21T22:11:59.455Z,24.43
2023-03-21T22:15:05.061Z,26.50
2023-03-21T22:18:09.802Z,26.73
2023-03-21T22:21:15.061Z,25.17
2023-03-21T22:24:20.276Z,26.47
2023-03-21T22:27:25.407Z,27.00
2023-03-21T22:30:30.530Z,27.23
2023-03-21T22:33:35.977Z,28.20
2023-03-21T22:36:46.744Z,28.97
2023-03-21T22:39:51.936Z,28.93
2023-03-21T22:42:56.676Z,29.63
2023-03-21T22:46:02.468Z,29.87
2023-03-21T22:49:07.581Z,29.87
2023-03-21T22:52:12.716Z,29.43
2023-03-21T22:55:17.908Z,28.63
2023-03-21T22:58:23.291Z,27.80
2023-03-21T23:01:28.314Z,29.00
2023-03-21T23:04:33.363Z,27.73
2023-03-21T23:07:38.270Z,27.60
2023-03-21T23:10:45.866Z,27.37
2023-03-21T23:14:06.745Z,30.13
2023-03-21T23:17:12.537Z,27.60
2023-03-21T23:20:17.646Z,28.87
2023-03-21T23:23:24.825Z,28.37
2023-03-21T23:26:29.842Z,28.87
2023-03-21T23:29:35.294Z,28.50
2023-03-21T23:32:40.145Z,29.97
2023-03-21T23:35:46.220Z,29.63
2023-03-21T23:38:51.375Z,28.93
2023-03-21T23:41:58.018Z,30.63
2023-03-21T23:45:02.768Z,30.80
2023-03-21T23:48:07.854Z,29.40
2023-03-21T23:51:12.881Z,30.93
2023-03-21T23:54:17.922Z,30.20
2023-03-21T23:57:23.065Z,30.13
